sensor_id;sensor_type;location;lat;lon;timestamp;P1;durP1;ratioP1;P2;durP2;ratioP2
27684;SDS011;46113;50.130;8.526;2023-06-01T00:16:18;1.95;;;1.20;;
27684;SDS011;46113;50.130;8.526;2023-06-01T00:19:03;8.05;;;1.17;;
27684;SDS011;46113;50.130;8.526;2023-06-01T00:22:13;3.80;;;1.30;;
27684;SDS011;46113;50.130;8.526;2023-06-01T00:25:14;3.10;;;1.45;;
27684;SDS011;46113;50.130;8.526;2023-06-01T00:32:00;1.23;;;1.08;;
27684;SDS011;46113;50.130;8.526;2023-06-01T00:35:09;2.78;;;1.45;;
27684;SDS011;46113;50.130;8.526;2023-06-01T00:38:13;3.97;;;1.70;;
27684;SDS011;46113;50.130;8.526;2023-06-01T00:41:06;2.88;;;1.20;;
27684;SDS011;46113;50.130;8.526;2023-06-01T00:43:55;1.67;;;1.00;;
27684;SDS011;46113;50.130;8.526;2023-06-01T00:46:40;1.88;;;0.98;;
27684;SDS011;46113;50.130;8.526;2023-06-01T00:49:40;3.42;;;1.40;;
27684;SDS011;46113;50.130;8.526;2023-06-01T01:04:18;2.38;;;1.42;;
27684;SDS011;46113;50.130;8.526;2023-06-01T01:13:44;3.67;;;1.13;;
27684;SDS011;46113;50.130;8.526;2023-06-01T01:20:26;3.08;;;1.58;;
27684;SDS011;46113;50.130;8.526;2023-06-01T01:31:35;4.57;;;1.40;;
27684;SDS011;46113;50.130;8.526;2023-06-01T01:34:55;3.65;;;1.35;;
27684;SDS011;46113;50.130;8.526;2023-06-01T01:38:30;6.03;;;1.30;;
27684;SDS011;46113;50.130;8.526;2023-06-01T01:41:52;1.85;;;1.15;;
27684;SDS011;46113;50.130;8.526;2023-06-01T01:45:01;6.53;;;1.80;;
27684;SDS011;46113;50.130;8.526;2023-06-01T01:48:44;4.10;;;2.15;;
27684;SDS011;46113;50.130;8.526;2023-06-01T01:52:42;3.58;;;1.83;;
27684;SDS011;46113;50.130;8.526;2023-06-01T01:56:24;7.50;;;1.58;;
27684;SDS011;46113;50.130;8.526;2023-06-01T02:00:34;2.63;;;1.50;;
27684;SDS011;46113;50.130;8.526;2023-06-01T02:04:15;1.40;;;1.10;;
27684;SDS011;46113;50.130;8.526;2023-06-01T02:12:23;5.25;;;1.55;;
27684;SDS011;46113;50.130;8.526;2023-06-01T02:20:28;2.33;;;1.50;;
27684;SDS011;46113;50.130;8.526;2023-06-01T02:46:44;2.15;;;1.60;;
27684;SDS011;46113;50.130;8.526;2023-06-01T02:50:15;2.63;;;1.60;;
27684;SDS011;46113;50.130;8.526;2023-06-01T02:54:17;4.13;;;1.33;;
27684;SDS011;46113;50.130;8.526;2023-06-01T02:58:13;1.52;;;1.13;;
27684;SDS011;46113;50.130;8.526;2023-06-01T03:05:26;3.83;;;1.42;;
27684;SDS011;46113;50.130;8.526;2023-06-01T03:08:31;1.90;;;1.20;;
27684;SDS011;46113;50.130;8.526;2023-06-01T03:11:03;3.72;;;1.30;;
27684;SDS011;46113;50.130;8.526;2023-06-01T03:13:34;2.53;;;1.48;;
27684;SDS011;46113;50.130;8.526;2023-06-01T03:16:01;3.22;;;1.67;;
27684;SDS011;46113;50.130;8.526;2023-06-01T03:18:32;3.53;;;1.20;;
27684;SDS011;46113;50.130;8.526;2023-06-01T03:21:05;3.65;;;1.00;;
27684;SDS011;46113;50.130;8.526;2023-06-01T03:23:41;2.13;;;1.58;;
27684;SDS011;46113;50.130;8.526;2023-06-01T03:26:16;4.68;;;1.70;;
27684;SDS011;46113;50.130;8.526;2023-06-01T03:28:49;4.57;;;1.70;;
27684;SDS011;46113;50.130;8.526;2023-06-01T03:31:39;3.80;;;1.50;;
27684;SDS011;46113;50.130;8.526;2023-06-01T03:34:13;3.00;;;1.50;;
27684;SDS011;46113;50.130;8.526;2023-06-01T03:36:57;4.40;;;1.63;;
27684;SDS011;46113;50.130;8.526;2023-06-01T03:39:31;2.60;;;1.25;;
27684;SDS011;46113;50.130;8.526;2023-06-01T03:55:19;1.63;;;1.05;;
27684;SDS011;46113;50.130;8.526;2023-06-01T03:58:12;6.55;;;1.73;;
27684;SDS011;46113;50.130;8.526;2023-06-01T04:00:41;4.68;;;1.63;;
27684;SDS011;46113;50.130;8.526;2023-06-01T04:03:11;2.38;;;1.52;;
27684;SDS011;46113;50.130;8.526;2023-06-01T04:05:39;2.65;;;1.10;;
27684;SDS011;46113;50.130;8.526;2023-06-01T04:08:10;3.45;;;1.20;;
27684;SDS011;46113;50.130;8.526;2023-06-01T04:10:37;2.13;;;1.58;;
27684;SDS011;46113;50.130;8.526;2023-06-01T04:13:09;3.05;;;1.38;;
27684;SDS011;46113;50.130;8.526;2023-06-01T04:15:36;1.02;;;0.95;;
27684;SDS011;46113;50.130;8.526;2023-06-01T04:18:22;4.30;;;1.70;;
27684;SDS011;46113;50.130;8.526;2023-06-01T04:20:59;2.00;;;1.50;;
27684;SDS011;46113;50.130;8.526;2023-06-01T04:23:32;1.83;;;1.50;;
27684;SDS011;46113;50.130;8.526;2023-06-01T04:26:03;5.28;;;1.48;;
27684;SDS011;46113;50.130;8.526;2023-06-01T04:28:46;1.95;;;1.23;;
27684;SDS011;46113;50.130;8.526;2023-06-01T04:31:13;1.27;;;1.17;;
27684;SDS011;46113;50.130;8.526;2023-06-01T04:33:47;2.38;;;1.45;;
27684;SDS011;46113;50.130;8.526;2023-06-01T04:36:24;4.25;;;1.88;;
27684;SDS011;46113;50.130;8.526;2023-06-01T04:38:59;2.80;;;1.10;;
27684;SDS011;46113;50.130;8.526;2023-06-01T04:41:26;2.33;;;1.23;;
27684;SDS011;46113;50.130;8.526;2023-06-01T04:43:53;2.65;;;1.67;;
27684;SDS011;46113;50.130;8.526;2023-06-01T04:46:23;3.17;;;1.88;;
27684;SDS011;46113;50.130;8.526;2023-06-01T04:48:55;4.57;;;2.08;;
27684;SDS011;46113;50.130;8.526;2023-06-01T04:51:24;1.83;;;1.33;;
27684;SDS011;46113;50.130;8.526;2023-06-01T04:53:52;4.13;;;1.23;;
27684;SDS011;46113;50.130;8.526;2023-06-01T04:56:20;2.75;;;1.60;;
27684;SDS011;46113;50.130;8.526;2023-06-01T04:58:51;2.90;;;1.25;;
27684;SDS011;46113;50.130;8.526;2023-06-01T05:01:19;1.77;;;1.15;;
27684;SDS011;46113;50.130;8.526;2023-06-01T05:03:52;1.50;;;1.40;;
27684;SDS011;46113;50.130;8.526;2023-06-01T05:06:21;1.58;;;1.10;;
27684;SDS011;46113;50.130;8.526;2023-06-01T05:08:49;3.88;;;1.42;;
27684;SDS011;46113;50.130;8.526;2023-06-01T05:11:16;6.30;;;1.60;;
27684;SDS011;46113;50.130;8.526;2023-06-01T05:13:44;2.50;;;1.27;;
27684;SDS011;46113;50.130;8.526;2023-06-01T05:16:11;1.73;;;1.38;;
27684;SDS011;46113;50.130;8.526;2023-06-01T05:18:39;2.75;;;1.30;;
27684;SDS011;46113;50.130;8.526;2023-06-01T05:21:08;1.38;;;0.95;;
27684;SDS011;46113;50.130;8.526;2023-06-01T05:23:34;2.92;;;1.30;;
27684;SDS011;46113;50.130;8.526;2023-06-01T05:26:01;7.38;;;1.90;;
27684;SDS011;46113;50.130;8.526;2023-06-01T05:28:32;2.63;;;1.27;;
27684;SDS011;46113;50.130;8.526;2023-06-01T05:31:03;4.22;;;1.73;;
27684;SDS011;46113;50.130;8.526;2023-06-01T05:33:33;2.05;;;1.15;;
27684;SDS011;46113;50.130;8.526;2023-06-01T05:36:00;4.85;;;1.40;;
27684;SDS011;46113;50.130;8.526;2023-06-01T05:38:27;4.28;;;1.30;;
27684;SDS011;46113;50.130;8.526;2023-06-01T05:40:54;3.85;;;0.90;;
27684;SDS011;46113;50.130;8.526;2023-06-01T05:43:20;5.97;;;1.33;;
27684;SDS011;46113;50.130;8.526;2023-06-01T05:45:47;2.25;;;1.33;;
27684;SDS011;46113;50.130;8.526;2023-06-01T05:48:14;1.50;;;1.15;;
27684;SDS011;46113;50.130;8.526;2023-06-01T05:50:46;2.65;;;1.20;;
27684;SDS011;46113;50.130;8.526;2023-06-01T05:53:13;3.83;;;1.20;;
27684;SDS011;46113;50.130;8.526;2023-06-01T05:55:40;6.28;;;1.55;;
27684;SDS011;46113;50.130;8.526;2023-06-01T05:58:08;1.63;;;1.38;;
27684;SDS011;46113;50.130;8.526;2023-06-01T06:00:35;4.03;;;1.20;;
27684;SDS011;46113;50.130;8.526;2023-06-01T06:03:03;2.83;;;1.40;;
27684;SDS011;46113;50.130;8.526;2023-06-01T06:05:30;3.78;;;1.50;;
27684;SDS011;46113;50.130;8.526;2023-06-01T06:07:57;3.10;;;1.35;;
27684;SDS011;46113;50.130;8.526;2023-06-01T06:10:24;5.47;;;2.10;;
27684;SDS011;46113;50.130;8.526;2023-06-01T06:12:51;6.10;;;1.88;;
27684;SDS011;46113;50.130;8.526;2023-06-01T06:15:17;5.15;;;1.77;;
27684;SDS011;46113;50.130;8.526;2023-06-01T06:17:44;5.32;;;1.88;;
27684;SDS011;46113;50.130;8.526;2023-06-01T06:20:11;3.88;;;1.83;;
27684;SDS011;46113;50.130;8.526;2023-06-01T06:22:39;5.97;;;2.22;;
27684;SDS011;46113;50.130;8.526;2023-06-01T06:25:05;3.05;;;1.80;;
27684;SDS011;46113;50.130;8.526;2023-06-01T06:27:32;3.33;;;2.08;;
27684;SDS011;46113;50.130;8.526;2023-06-01T06:29:59;3.60;;;2.03;;
27684;SDS011;46113;50.130;8.526;2023-06-01T06:32:26;5.10;;;1.92;;
27684;SDS011;46113;50.130;8.526;2023-06-01T06:34:53;4.40;;;1.65;;
27684;SDS011;46113;50.130;8.526;2023-06-01T06:37:19;5.45;;;2.13;;
27684;SDS011;46113;50.130;8.526;2023-06-01T06:39:46;4.25;;;1.70;;
27684;SDS011;46113;50.130;8.526;2023-06-01T06:42:13;7.28;;;2.28;;
27684;SDS011;46113;50.130;8.526;2023-06-01T06:44:40;1.88;;;1.38;;
27684;SDS011;46113;50.130;8.526;2023-06-01T06:47:06;5.00;;;1.50;;
27684;SDS011;46113;50.130;8.526;2023-06-01T06:49:33;8.02;;;1.55;;
27684;SDS011;46113;50.130;8.526;2023-06-01T06:52:00;3.42;;;1.35;;
27684;SDS011;46113;50.130;8.526;2023-06-01T06:54:27;2.08;;;1.10;;
27684;SDS011;46113;50.130;8.526;2023-06-01T06:56:53;3.17;;;1.50;;
27684;SDS011;46113;50.130;8.526;2023-06-01T06:59:20;6.47;;;1.60;;
27684;SDS011;46113;50.130;8.526;2023-06-01T07:01:47;1.70;;;1.27;;
27684;SDS011;46113;50.130;8.526;2023-06-01T07:04:14;2.13;;;1.35;;
27684;SDS011;46113;50.130;8.526;2023-06-01T07:06:41;5.90;;;1.30;;
27684;SDS011;46113;50.130;8.526;2023-06-01T07:09:08;3.30;;;1.30;;
27684;SDS011;46113;50.130;8.526;2023-06-01T07:11:35;4.47;;;1.65;;
27684;SDS011;46113;50.130;8.526;2023-06-01T07:14:02;4.03;;;0.95;;
27684;SDS011;46113;50.130;8.526;2023-06-01T07:16:29;3.25;;;1.02;;
27684;SDS011;46113;50.130;8.526;2023-06-01T07:18:56;3.80;;;1.20;;
27684;SDS011;46113;50.130;8.526;2023-06-01T07:21:23;5.30;;;1.75;;
27684;SDS011;46113;50.130;8.526;2023-06-01T07:23:49;3.95;;;1.65;;
27684;SDS011;46113;50.130;8.526;2023-06-01T07:26:16;3.42;;;1.02;;
27684;SDS011;46113;50.130;8.526;2023-06-01T07:28:43;2.90;;;1.23;;
27684;SDS011;46113;50.130;8.526;2023-06-01T07:31:09;2.72;;;1.52;;
27684;SDS011;46113;50.130;8.526;2023-06-01T07:33:36;4.32;;;1.35;;
27684;SDS011;46113;50.130;8.526;2023-06-01T07:36:04;4.00;;;0.82;;
27684;SDS011;46113;50.130;8.526;2023-06-01T07:38:33;1.23;;;0.88;;
27684;SDS011;46113;50.130;8.526;2023-06-01T07:40:59;1.83;;;1.00;;
27684;SDS011;46113;50.130;8.526;2023-06-01T07:43:27;3.72;;;1.77;;
27684;SDS011;46113;50.130;8.526;2023-06-01T07:45:54;2.03;;;0.98;;
27684;SDS011;46113;50.130;8.526;2023-06-01T07:48:21;2.28;;;1.10;;
27684;SDS011;46113;50.130;8.526;2023-06-01T07:50:48;3.83;;;0.98;;
27684;SDS011;46113;50.130;8.526;2023-06-01T07:53:17;5.65;;;1.38;;
27684;SDS011;46113;50.130;8.526;2023-06-01T07:55:44;2.08;;;0.98;;
27684;SDS011;46113;50.130;8.526;2023-06-01T07:58:11;1.75;;;1.23;;
27684;SDS011;46113;50.130;8.526;2023-06-01T08:00:38;2.42;;;1.63;;
27684;SDS011;46113;50.130;8.526;2023-06-01T08:03:04;2.45;;;1.27;;
27684;SDS011;46113;50.130;8.526;2023-06-01T08:05:35;1.83;;;1.10;;
27684;SDS011;46113;50.130;8.526;2023-06-01T08:08:04;1.17;;;0.98;;
27684;SDS011;46113;50.130;8.526;2023-06-01T08:10:31;3.75;;;1.60;;
27684;SDS011;46113;50.130;8.526;2023-06-01T08:12:58;1.45;;;1.10;;
27684;SDS011;46113;50.130;8.526;2023-06-01T08:15:25;2.10;;;1.15;;
27684;SDS011;46113;50.130;8.526;2023-06-01T08:17:52;3.38;;;1.38;;
27684;SDS011;46113;50.130;8.526;2023-06-01T08:20:19;2.63;;;0.93;;
27684;SDS011;46113;50.130;8.526;2023-06-01T08:22:52;1.90;;;1.23;;
27684;SDS011;46113;50.130;8.526;2023-06-01T08:25:18;1.90;;;1.40;;
27684;SDS011;46113;50.130;8.526;2023-06-01T08:27:45;2.92;;;1.20;;
27684;SDS011;46113;50.130;8.526;2023-06-01T08:30:12;2.83;;;1.05;;
27684;SDS011;46113;50.130;8.526;2023-06-01T08:32:39;3.75;;;1.63;;
27684;SDS011;46113;50.130;8.526;2023-06-01T08:35:06;2.92;;;1.48;;
27684;SDS011;46113;50.130;8.526;2023-06-01T08:37:34;3.50;;;1.00;;
27684;SDS011;46113;50.130;8.526;2023-06-01T08:40:02;2.55;;;1.77;;
27684;SDS011;46113;50.130;8.526;2023-06-01T08:42:43;2.23;;;1.47;;
27684;SDS011;46113;50.130;8.526;2023-06-01T08:45:41;2.75;;;1.58;;
27684;SDS011;46113;50.130;8.526;2023-06-01T08:48:12;2.88;;;1.38;;
27684;SDS011;46113;50.130;8.526;2023-06-01T08:50:42;4.13;;;1.30;;
27684;SDS011;46113;50.130;8.526;2023-06-01T08:53:09;1.98;;;1.00;;
27684;SDS011;46113;50.130;8.526;2023-06-01T08:55:37;4.60;;;1.70;;
27684;SDS011;46113;50.130;8.526;2023-06-01T08:58:03;5.38;;;1.27;;
27684;SDS011;46113;50.130;8.526;2023-06-01T09:00:30;2.13;;;1.27;;
27684;SDS011;46113;50.130;8.526;2023-06-01T09:02:59;1.83;;;1.20;;
27684;SDS011;46113;50.130;8.526;2023-06-01T09:05:26;1.92;;;1.10;;
27684;SDS011;46113;50.130;8.526;2023-06-01T09:07:53;1.48;;;1.00;;
27684;SDS011;46113;50.130;8.526;2023-06-01T09:10:23;1.58;;;0.80;;
27684;SDS011;46113;50.130;8.526;2023-06-01T09:12:52;6.73;;;1.47;;
27684;SDS011;46113;50.130;8.526;2023-06-01T09:15:20;3.58;;;0.98;;
27684;SDS011;46113;50.130;8.526;2023-06-01T09:17:48;4.03;;;1.10;;
27684;SDS011;46113;50.130;8.526;2023-06-01T09:20:23;9.98;;;1.60;;
27684;SDS011;46113;50.130;8.526;2023-06-01T09:22:54;1.70;;;1.27;;
27684;SDS011;46113;50.130;8.526;2023-06-01T09:25:25;6.65;;;2.00;;
27684;SDS011;46113;50.130;8.526;2023-06-01T09:27:56;2.17;;;0.95;;
27684;SDS011;46113;50.130;8.526;2023-06-01T09:30:25;2.78;;;1.33;;
27684;SDS011;46113;50.130;8.526;2023-06-01T09:33:06;3.30;;;1.27;;
27684;SDS011;46113;50.130;8.526;2023-06-01T09:35:43;4.38;;;2.47;;
27684;SDS011;46113;50.130;8.526;2023-06-01T09:40:38;5.40;;;1.25;;
27684;SDS011;46113;50.130;8.526;2023-06-01T09:43:21;2.35;;;1.17;;
27684;SDS011;46113;50.130;8.526;2023-06-01T09:46:04;4.00;;;1.63;;
27684;SDS011;46113;50.130;8.526;2023-06-01T09:48:33;1.65;;;1.40;;
27684;SDS011;46113;50.130;8.526;2023-06-01T09:50:59;3.22;;;1.33;;
27684;SDS011;46113;50.130;8.526;2023-06-01T09:53:38;3.55;;;1.10;;
27684;SDS011;46113;50.130;8.526;2023-06-01T09:56:06;3.85;;;1.48;;
27684;SDS011;46113;50.130;8.526;2023-06-01T09:58:33;3.65;;;1.30;;
27684;SDS011;46113;50.130;8.526;2023-06-01T10:01:05;7.85;;;1.88;;
27684;SDS011;46113;50.130;8.526;2023-06-01T10:03:35;5.38;;;1.50;;
27684;SDS011;46113;50.130;8.526;2023-06-01T10:06:07;4.50;;;1.23;;
27684;SDS011;46113;50.130;8.526;2023-06-01T10:08:34;1.42;;;1.13;;
27684;SDS011;46113;50.130;8.526;2023-06-01T10:11:01;1.83;;;1.38;;
27684;SDS011;46113;50.130;8.526;2023-06-01T10:13:29;4.57;;;1.38;;
27684;SDS011;46113;50.130;8.526;2023-06-01T10:15:57;1.35;;;1.00;;
27684;SDS011;46113;50.130;8.526;2023-06-01T10:18:24;6.47;;;1.63;;
27684;SDS011;46113;50.130;8.526;2023-06-01T10:20:52;1.50;;;1.25;;
27684;SDS011;46113;50.130;8.526;2023-06-01T10:23:19;2.33;;;0.98;;
27684;SDS011;46113;50.130;8.526;2023-06-01T10:25:56;1.27;;;0.93;;
27684;SDS011;46113;50.130;8.526;2023-06-01T10:28:25;2.25;;;1.15;;
27684;SDS011;46113;50.130;8.526;2023-06-01T10:34:01;4.05;;;1.48;;
27684;SDS011;46113;50.130;8.526;2023-06-01T10:41:53;2.05;;;1.10;;
27684;SDS011;46113;50.130;8.526;2023-06-01T10:47:43;4.32;;;1.50;;
27684;SDS011;46113;50.130;8.526;2023-06-01T11:02:52;1.05;;;0.90;;
27684;SDS011;46113;50.130;8.526;2023-06-01T11:13:20;6.93;;;1.13;;
27684;SDS011;46113;50.130;8.526;2023-06-01T11:18:49;3.70;;;1.50;;
27684;SDS011;46113;50.130;8.526;2023-06-01T11:21:25;6.93;;;1.15;;
27684;SDS011;46113;50.130;8.526;2023-06-01T11:23:53;2.53;;;0.85;;
27684;SDS011;46113;50.130;8.526;2023-06-01T11:26:22;2.25;;;1.25;;
27684;SDS011;46113;50.130;8.526;2023-06-01T11:29:05;6.72;;;1.55;;
27684;SDS011;46113;50.130;8.526;2023-06-01T11:31:35;1.95;;;1.35;;
27684;SDS011;46113;50.130;8.526;2023-06-01T11:34:15;8.00;;;1.30;;
27684;SDS011;46113;50.130;8.526;2023-06-01T11:36:47;2.83;;;0.80;;
27684;SDS011;46113;50.130;8.526;2023-06-01T11:39:15;1.80;;;0.90;;
27684;SDS011;46113;50.130;8.526;2023-06-01T11:41:50;6.20;;;0.90;;
27684;SDS011;46113;50.130;8.526;2023-06-01T11:44:38;4.72;;;1.25;;
27684;SDS011;46113;50.130;8.526;2023-06-01T11:47:10;6.68;;;1.40;;
27684;SDS011;46113;50.130;8.526;2023-06-01T11:49:50;4.43;;;1.25;;
27684;SDS011;46113;50.130;8.526;2023-06-01T11:52:18;1.83;;;0.90;;
27684;SDS011;46113;50.130;8.526;2023-06-01T11:54:46;1.95;;;1.13;;
27684;SDS011;46113;50.130;8.526;2023-06-01T11:57:13;3.40;;;1.13;;
27684;SDS011;46113;50.130;8.526;2023-06-01T11:59:42;1.67;;;1.02;;
27684;SDS011;46113;50.130;8.526;2023-06-01T12:04:58;1.95;;;1.30;;
27684;SDS011;46113;50.130;8.526;2023-06-01T12:07:25;4.10;;;1.30;;
27684;SDS011;46113;50.130;8.526;2023-06-01T12:09:53;3.17;;;1.55;;
27684;SDS011;46113;50.130;8.526;2023-06-01T12:12:24;3.83;;;1.15;;
27684;SDS011;46113;50.130;8.526;2023-06-01T12:14:51;2.55;;;1.00;;
27684;SDS011;46113;50.130;8.526;2023-06-01T12:17:18;3.72;;;1.10;;
27684;SDS011;46113;50.130;8.526;2023-06-01T12:19:47;4.50;;;1.05;;
27684;SDS011;46113;50.130;8.526;2023-06-01T12:22:14;4.65;;;1.13;;
27684;SDS011;46113;50.130;8.526;2023-06-01T12:24:43;4.10;;;1.10;;
27684;SDS011;46113;50.130;8.526;2023-06-01T12:27:14;3.67;;;1.30;;
27684;SDS011;46113;50.130;8.526;2023-06-01T12:29:43;5.28;;;1.10;;
27684;SDS011;46113;50.130;8.526;2023-06-01T12:32:13;8.40;;;1.30;;
27684;SDS011;46113;50.130;8.526;2023-06-01T12:34:41;4.10;;;1.48;;
27684;SDS011;46113;50.130;8.526;2023-06-01T12:37:15;3.08;;;1.20;;
27684;SDS011;46113;50.130;8.526;2023-06-01T12:39:55;3.20;;;1.20;;
27684;SDS011;46113;50.130;8.526;2023-06-01T12:42:35;3.58;;;1.40;;
27684;SDS011;46113;50.130;8.526;2023-06-01T12:45:04;3.25;;;1.67;;
27684;SDS011;46113;50.130;8.526;2023-06-01T12:47:35;2.67;;;0.90;;
27684;SDS011;46113;50.130;8.526;2023-06-01T12:50:09;3.88;;;1.17;;
27684;SDS011;46113;50.130;8.526;2023-06-01T12:52:39;2.42;;;1.27;;
27684;SDS011;46113;50.130;8.526;2023-06-01T12:55:06;1.27;;;1.13;;
27684;SDS011;46113;50.130;8.526;2023-06-01T12:57:35;3.38;;;1.50;;
27684;SDS011;46113;50.130;8.526;2023-06-01T13:00:04;4.70;;;1.27;;
27684;SDS011;46113;50.130;8.526;2023-06-01T13:02:33;2.25;;;1.13;;
27684;SDS011;46113;50.130;8.526;2023-06-01T13:05:01;5.32;;;1.55;;
27684;SDS011;46113;50.130;8.526;2023-06-01T13:07:28;6.13;;;1.38;;
27684;SDS011;46113;50.130;8.526;2023-06-01T13:09:54;3.85;;;1.50;;
27684;SDS011;46113;50.130;8.526;2023-06-01T13:12:24;5.95;;;1.02;;
27684;SDS011;46113;50.130;8.526;2023-06-01T13:14:50;2.30;;;1.10;;
27684;SDS011;46113;50.130;8.526;2023-06-01T13:17:17;2.10;;;0.90;;
27684;SDS011;46113;50.130;8.526;2023-06-01T13:19:44;3.15;;;1.48;;
27684;SDS011;46113;50.130;8.526;2023-06-01T13:22:12;3.63;;;1.08;;
27684;SDS011;46113;50.130;8.526;2023-06-01T13:24:39;1.75;;;1.08;;
27684;SDS011;46113;50.130;8.526;2023-06-01T13:27:24;4.22;;;1.65;;
27684;SDS011;46113;50.130;8.526;2023-06-01T13:29:50;1.10;;;1.00;;
27684;SDS011;46113;50.130;8.526;2023-06-01T13:32:17;1.85;;;1.38;;
27684;SDS011;46113;50.130;8.526;2023-06-01T13:34:44;1.83;;;1.10;;
27684;SDS011;46113;50.130;8.526;2023-06-01T13:37:10;6.57;;;0.80;;
27684;SDS011;46113;50.130;8.526;2023-06-01T13:39:37;2.15;;;1.00;;
27684;SDS011;46113;50.130;8.526;2023-06-01T13:42:04;1.95;;;0.93;;
27684;SDS011;46113;50.130;8.526;2023-06-01T13:44:33;6.50;;;1.40;;
27684;SDS011;46113;50.130;8.526;2023-06-01T13:46:59;2.08;;;1.27;;
27684;SDS011;46113;50.130;8.526;2023-06-01T13:49:26;3.95;;;1.13;;
27684;SDS011;46113;50.130;8.526;2023-06-01T13:51:55;1.15;;;0.82;;
27684;SDS011;46113;50.130;8.526;2023-06-01T13:54:22;7.88;;;1.48;;
27684;SDS011;46113;50.130;8.526;2023-06-01T13:56:49;3.20;;;1.60;;
27684;SDS011;46113;50.130;8.526;2023-06-01T13:59:16;1.38;;;1.05;;
27684;SDS011;46113;50.130;8.526;2023-06-01T14:01:43;3.38;;;1.00;;
27684;SDS011;46113;50.130;8.526;2023-06-01T14:04:10;1.25;;;1.15;;
27684;SDS011;46113;50.130;8.526;2023-06-01T14:06:36;3.17;;;1.17;;
27684;SDS011;46113;50.130;8.526;2023-06-01T14:09:03;1.00;;;0.65;;
27684;SDS011;46113;50.130;8.526;2023-06-01T14:11:30;1.85;;;1.17;;
27684;SDS011;46113;50.130;8.526;2023-06-01T14:13:56;1.38;;;0.82;;
27684;SDS011;46113;50.130;8.526;2023-06-01T14:16:23;2.00;;;1.13;;
27684;SDS011;46113;50.130;8.526;2023-06-01T14:18:50;2.17;;;0.80;;
27684;SDS011;46113;50.130;8.526;2023-06-01T14:21:16;3.35;;;1.00;;
27684;SDS011;46113;50.130;8.526;2023-06-01T14:23:43;1.48;;;0.82;;
27684;SDS011;46113;50.130;8.526;2023-06-01T14:26:11;4.30;;;1.40;;
27684;SDS011;46113;50.130;8.526;2023-06-01T14:28:38;2.15;;;1.08;;
27684;SDS011;46113;50.130;8.526;2023-06-01T14:31:04;3.08;;;1.27;;
27684;SDS011;46113;50.130;8.526;2023-06-01T14:33:31;2.45;;;1.30;;
27684;SDS011;46113;50.130;8.526;2023-06-01T14:35:58;5.07;;;1.73;;
27684;SDS011;46113;50.130;8.526;2023-06-01T14:38:25;2.53;;;1.92;;
27684;SDS011;46113;50.130;8.526;2023-06-01T14:40:52;3.00;;;2.15;;
27684;SDS011;46113;50.130;8.526;2023-06-01T14:43:19;3.70;;;2.10;;
27684;SDS011;46113;50.130;8.526;2023-06-01T14:45:46;5.32;;;2.42;;
27684;SDS011;46113;50.130;8.526;2023-06-01T14:48:13;4.22;;;2.53;;
27684;SDS011;46113;50.130;8.526;2023-06-01T14:50:39;4.40;;;2.28;;
27684;SDS011;46113;50.130;8.526;2023-06-01T14:53:06;2.60;;;2.13;;
27684;SDS011;46113;50.130;8.526;2023-06-01T14:55:34;8.32;;;3.33;;
27684;SDS011;46113;50.130;8.526;2023-06-01T18:10:14;2.60;;;2.05;;
27684;SDS011;46113;50.130;8.526;2023-06-01T18:12:41;4.57;;;2.40;;
27684;SDS011;46113;50.130;8.526;2023-06-01T18:23:39;4.88;;;2.42;;
27684;SDS011;46113;50.130;8.526;2023-06-01T20:36:30;5.45;;;4.00;;
27684;SDS011;46113;50.130;8.526;2023-06-01T20:39:05;7.32;;;3.88;;
27684;SDS011;46113;50.130;8.526;2023-06-01T20:42:14;7.60;;;3.60;;
27684;SDS011;46113;50.130;8.526;2023-06-01T21:54:38;15.10;;;4.80;;
27684;SDS011;46113;50.130;8.526;2023-06-01T21:57:04;7.40;;;3.75;;
27684;SDS011;46113;50.130;8.526;2023-06-01T21:59:32;10.65;;;4.32;;
27684;SDS011;46113;50.130;8.526;2023-06-01T22:20:07;6.40;;;3.53;;
27684;SDS011;46113;50.130;8.526;2023-06-01T22:22:35;5.72;;;3.63;;
27684;SDS011;46113;50.130;8.526;2023-06-01T22:25:02;6.68;;;3.83;;
27684;SDS011;46113;50.130;8.526;2023-06-01T22:27:30;3.70;;;3.10;;
27684;SDS011;46113;50.130;8.526;2023-06-01T22:29:57;5.03;;;3.00;;
27684;SDS011;46113;50.130;8.526;2023-06-01T22:32:24;5.93;;;3.92;;
27684;SDS011;46113;50.130;8.526;2023-06-01T22:34:51;3.30;;;2.63;;
27684;SDS011;46113;50.130;8.526;2023-06-01T22:37:18;3.33;;;2.88;;
27684;SDS011;46113;50.130;8.526;2023-06-01T22:39:47;6.05;;;3.58;;
27684;SDS011;46113;50.130;8.526;2023-06-01T22:42:14;7.95;;;2.97;;
27684;SDS011;46113;50.130;8.526;2023-06-01T22:44:42;4.50;;;3.05;;
27684;SDS011;46113;50.130;8.526;2023-06-01T22:47:09;4.40;;;3.20;;
27684;SDS011;46113;50.130;8.526;2023-06-01T22:49:36;3.85;;;2.97;;
27684;SDS011;46113;50.130;8.526;2023-06-01T22:52:03;5.78;;;3.08;;
27684;SDS011;46113;50.130;8.526;2023-06-01T22:54:30;8.32;;;3.08;;
27684;SDS011;46113;50.130;8.526;2023-06-01T22:56:58;5.32;;;3.20;;
27684;SDS011;46113;50.130;8.526;2023-06-01T22:59:25;4.20;;;2.85;;
27684;SDS011;46113;50.130;8.526;2023-06-01T23:01:52;4.15;;;2.50;;
27684;SDS011;46113;50.130;8.526;2023-06-01T23:04:18;3.78;;;3.40;;
27684;SDS011;46113;50.130;8.526;2023-06-01T23:06:46;3.92;;;2.63;;
27684;SDS011;46113;50.130;8.526;2023-06-01T23:09:20;6.28;;;3.03;;
27684;SDS011;46113;50.130;8.526;2023-06-01T23:11:47;3.92;;;3.15;;
27684;SDS011;46113;50.130;8.526;2023-06-01T23:14:18;3.72;;;3.00;;
27684;SDS011;46113;50.130;8.526;2023-06-01T23:19:20;9.93;;;2.63;;
27684;SDS011;46113;50.130;8.526;2023-06-01T23:21:46;3.80;;;3.15;;
27684;SDS011;46113;50.130;8.526;2023-06-01T23:24:15;3.85;;;2.92;;
27684;SDS011;46113;50.130;8.526;2023-06-01T23:26:43;2.65;;;2.40;;
27684;SDS011;46113;50.130;8.526;2023-06-01T23:29:10;6.35;;;3.13;;
27684;SDS011;46113;50.130;8.526;2023-06-01T23:31:37;3.80;;;3.03;;
27684;SDS011;46113;50.130;8.526;2023-06-01T23:34:04;5.82;;;2.97;;
27684;SDS011;46113;50.130;8.526;2023-06-01T23:36:32;3.28;;;2.50;;
27684;SDS011;46113;50.130;8.526;2023-06-01T23:39:04;3.83;;;2.55;;
27684;SDS011;46113;50.130;8.526;2023-06-01T23:41:33;2.95;;;2.67;;
27684;SDS011;46113;50.130;8.526;2023-06-01T23:44:01;4.10;;;2.60;;
27684;SDS011;46113;50.130;8.526;2023-06-01T23:46:28;3.10;;;2.28;;
27684;SDS011;46113;50.130;8.526;2023-06-01T23:48:56;3.25;;;2.50;;
27684;SDS011;46113;50.130;8.526;2023-06-01T23:51:23;2.42;;;2.22;;
27684;SDS011;46113;50.130;8.526;2023-06-01T23:53:50;3.22;;;2.92;;
27684;SDS011;46113;50.130;8.526;2023-06-01T23:56:17;4.03;;;3.40;;
27684;SDS011;46113;50.130;8.526;2023-06-01T23:58:45;3.90;;;3.35;;
